Time;durP1;ratioP1;P1;durP2;ratioP2;P2;SDS_P1;SDS_P2;PMS_P1;PMS_P2;Temp;Humidity;BMP_temperature;BMP_pressure;BME280_temperature;BME280_humidity;BME280_pressure;Samples;Min_cycle;Max_cycle;Signal;HPM_P1;HPM_P2
2021/07/24 00:00:55;;;;;;;5.05;1.12;;;23.20;50.20;;;;;;4300008;33;20075;-36
2021/07/24 00:03:21;;;;;;;3.10;1.00;;;23.20;50.10;;;;;;4312036;33;20094;-36
2021/07/24 00:05:48;;;;;;;3.83;1.30;;;23.30;50.10;;;;;;4311792;33;20080;-36
2021/07/24 00:08:14;;;;;;;3.75;1.20;;;23.30;50.10;;;;;;4275623;33;20190;-36
2021/07/24 00:10:41;;;;;;;3.17;1.25;;;23.30;50.00;;;;;;4318960;33;20071;-36
2021/07/24 00:13:07;;;;;;;5.25;2.00;;;23.40;50.00;;;;;;4314385;33;20162;-36
2021/07/24 00:15:34;;;;;;;5.32;1.00;;;23.40;49.90;;;;;;4302206;33;20067;-36
2021/07/24 00:18:00;;;;;;;5.35;1.30;;;23.40;50.40;;;;;;4326292;33;20078;-36
2021/07/24 00:20:26;;;;;;;7.07;1.35;;;23.40;49.70;;;;;;4326507;33;20082;-36
2021/07/24 00:22:53;;;;;;;6.62;1.40;;;23.40;49.50;;;;;;4326418;33;20151;-37
2021/07/24 00:25:19;;;;;;;14.10;1.60;;;23.40;49.50;;;;;;4325960;33;20170;-36
2021/07/24 00:27:46;;;;;;;6.03;1.45;;;23.40;49.30;;;;;;4301675;33;20079;-36
2021/07/24 00:30:13;;;;;;;7.00;1.75;;;23.40;49.30;;;;;;4314349;33;20194;-39
2021/07/24 00:32:39;;;;;;;9.38;1.52;;;23.40;49.20;;;;;;4328585;33;20062;-36
2021/07/24 00:35:07;;;;;;;5.45;1.15;;;23.30;49.00;;;;;;4296665;33;20071;-36
2021/07/24 00:37:33;;;;;;;6.75;1.67;;;23.20;49.00;;;;;;4296725;33;20087;-36
2021/07/24 00:40:00;;;;;;;7.03;1.50;;;23.10;49.00;;;;;;4284567;33;20071;-36
2021/07/24 00:42:27;;;;;;;2.70;1.00;;;23.10;48.90;;;;;;4285031;33;20642;-36
2021/07/24 00:44:57;;;;;;;4.15;0.98;;;23.00;48.80;;;;;;4284572;33;20149;-36
2021/07/24 00:47:47;;;;;;;3.83;1.48;;;23.00;48.90;;;;;;4284774;33;20095;-37
2021/07/24 00:50:14;;;;;;;4.22;1.10;;;23.00;49.00;;;;;;4286256;33;20068;-36
2021/07/24 00:52:42;;;;;;;8.10;1.40;;;23.00;48.70;;;;;;4284507;33;20189;-37
2021/07/24 00:55:11;;;;;;;3.08;1.05;;;22.90;48.90;;;;;;4284191;33;20538;-36
2021/07/24 00:57:40;;;;;;;6.00;1.30;;;22.90;49.00;;;;;;4280145;33;20071;-36
2021/07/24 01:00:08;;;;;;;4.03;1.23;;;23.00;49.10;;;;;;4284920;33;20091;-37
2021/07/24 01:02:36;;;;;;;5.57;1.12;;;23.00;49.10;;;;;;4296323;33;20097;-36
2021/07/24 01:05:03;;;;;;;4.03;1.70;;;23.00;49.20;;;;;;4297365;33;20092;-36
2021/07/24 01:07:34;;;;;;;5.72;1.52;;;23.00;49.20;;;;;;4296517;33;20223;-36
2021/07/24 01:10:01;;;;;;;2.10;1.75;;;23.00;49.10;;;;;;4284287;33;20084;-36
2021/07/24 01:12:28;;;;;;;3.17;1.30;;;23.10;49.00;;;;;;4296571;33;20080;-36
2021/07/24 01:14:55;;;;;;;6.80;1.50;;;23.10;49.00;;;;;;4296661;33;20073;-36
2021/07/24 01:17:21;;;;;;;6.90;2.17;;;23.10;48.90;;;;;;4296528;33;20602;-36
2021/07/24 01:19:48;;;;;;;4.47;1.20;;;23.10;49.00;;;;;;4296415;33;20578;-37
2021/07/24 01:22:14;;;;;;;3.03;1.12;;;23.20;49.10;;;;;;4296250;33;20076;-37
2021/07/24 01:24:41;;;;;;;5.05;1.42;;;23.20;49.20;;;;;;4284881;33;20119;-37
2021/07/24 01:27:10;;;;;;;2.12;1.10;;;23.20;49.30;;;;;;4272360;33;20181;-36
2021/07/24 01:29:39;;;;;;;14.82;1.80;;;23.30;49.40;;;;;;4284515;33;20071;-36
2021/07/24 01:32:06;;;;;;;7.85;1.77;;;23.30;49.50;;;;;;4284522;33;20064;-36
2021/07/24 01:34:33;;;;;;;13.57;1.70;;;23.40;49.50;;;;;;4284687;33;20617;-36
2021/07/24 01:36:59;;;;;;;4.30;1.20;;;23.40;49.30;;;;;;4296453;33;20155;-36
2021/07/24 01:39:26;;;;;;;6.07;1.40;;;23.50;49.00;;;;;;4310810;33;20530;-36
2021/07/24 01:41:55;;;;;;;2.37;1.00;;;23.50;48.60;;;;;;4314071;33;20499;-36
2021/07/24 01:44:21;;;;;;;2.78;1.20;;;23.60;48.10;;;;;;4314029;33;20067;-36
2021/07/24 01:46:48;;;;;;;5.28;1.60;;;23.60;47.80;;;;;;4327726;33;20595;-36
2021/07/24 01:52:46;;;;;;;3.55;0.90;;;23.70;47.80;;;;;;4314149;33;20152;-37
2021/07/24 01:55:05;;;;;;;7.53;1.37;;;24.10;47.70;;;;;;4327987;33;20090;-37
2021/07/24 01:57:34;;;;;;;8.60;1.83;;;24.40;47.40;;;;;;4322663;33;20063;-37
2021/07/24 02:00:09;;;;;;;7.90;2.20;;;24.60;47.10;;;;;;4307939;33;20063;-37
2021/07/24 02:02:36;;;;;;;;;;;24.90;46.80;;;;;;4345591;33;20082;-37
2021/07/24 02:05:04;;;;;;;5.47;1.40;;;25.20;46.50;;;;;;4345024;33;20149;-37
2021/07/24 02:07:35;;;;;;;6.82;1.15;;;25.50;45.80;;;;;;4331547;33;20058;-36
2021/07/24 02:10:03;;;;;;;2.17;0.88;;;25.80;44.30;;;;;;4349183;32;20082;-36
2021/07/24 02:12:29;;;;;;;1.27;0.90;;;26.10;43.50;;;;;;4346838;32;20074;-37
2021/07/24 02:14:57;;;;;;;4.68;1.23;;;26.30;42.70;;;;;;4360166;32;20151;-37
2021/07/24 02:17:23;;;;;;;1.50;0.80;;;26.60;41.80;;;;;;4333872;32;20094;-36
2021/07/24 02:19:50;;;;;;;4.10;0.70;;;26.80;41.30;;;;;;4312564;33;20095;-37
2021/07/24 02:22:16;;;;;;;1.77;0.93;;;27.10;40.90;;;;;;4301294;33;20140;-37
2021/07/24 02:24:43;;;;;;;2.42;0.70;;;27.30;40.20;;;;;;4300959;33;20087;-37
2021/07/24 02:27:09;;;;;;;1.08;0.60;;;27.50;39.60;;;;;;4301271;33;20064;-37
2021/07/24 02:29:36;;;;;;;2.97;0.90;;;27.70;39.30;;;;;;4312816;33;20160;-36
2021/07/24 02:32:03;;;;;;;3.10;0.70;;;27.90;39.10;;;;;;4269611;33;20099;-36
2021/07/24 02:34:29;;;;;;;4.62;1.23;;;28.00;38.40;;;;;;4269491;33;20067;-36
2021/07/24 02:36:56;;;;;;;2.72;0.77;;;28.10;38.30;;;;;;4257171;33;20083;-37
2021/07/24 02:39:22;;;;;;;1.08;0.70;;;28.30;38.10;;;;;;4269269;33;20071;-37
2021/07/24 02:41:51;;;;;;;4.43;0.93;;;28.50;37.80;;;;;;4257414;33;20143;-37
2021/07/24 02:44:18;;;;;;;4.22;0.70;;;28.60;37.70;;;;;;4257477;33;20064;-37
2021/07/24 02:46:44;;;;;;;2.03;0.70;;;28.70;36.90;;;;;;4269490;33;20087;-37
2021/07/24 02:49:12;;;;;;;6.00;0.93;;;28.80;36.60;;;;;;4269301;33;20064;-37
2021/07/24 02:51:38;;;;;;;7.47;1.10;;;28.80;36.50;;;;;;4268957;33;20140;-37
2021/07/24 02:54:04;;;;;;;3.40;0.90;;;28.90;36.20;;;;;;4257683;33;20087;-37
2021/07/24 02:56:31;;;;;;;1.33;0.65;;;28.90;36.40;;;;;;4277557;33;20107;-37
2021/07/24 02:58:57;;;;;;;1.33;0.70;;;29.00;36.60;;;;;;4312804;33;20099;-36
2021/07/24 03:01:24;;;;;;;1.98;0.93;;;29.10;36.20;;;;;;4312362;33;20262;-36
2021/07/24 03:03:50;;;;;;;4.10;0.90;;;29.20;35.50;;;;;;4325150;33;20071;-36
2021/07/24 03:06:17;;;;;;;2.03;0.80;;;29.30;35.70;;;;;;4327263;33;20090;-36
2021/07/24 03:08:43;;;;;;;2.78;1.02;;;29.30;35.70;;;;;;4326492;33;20066;-36
2021/07/24 03:11:10;;;;;;;4.68;0.82;;;29.30;35.90;;;;;;4314858;33;20102;-36
2021/07/24 03:13:37;;;;;;;4.55;0.55;;;29.40;35.50;;;;;;4298054;33;20165;-37
2021/07/24 03:16:03;;;;;;;4.80;0.70;;;29.50;35.00;;;;;;4285877;33;20480;-36
2021/07/24 03:18:30;;;;;;;2.42;0.62;;;29.60;34.80;;;;;;4285521;33;20147;-36
2021/07/24 03:20:56;;;;;;;2.33;0.70;;;29.60;34.80;;;;;;4297487;33;20107;-36
2021/07/24 03:23:23;;;;;;;2.85;0.65;;;29.70;34.70;;;;;;4285853;33;20070;-36
2021/07/24 03:25:49;;;;;;;1.17;0.50;;;29.90;34.70;;;;;;4285872;33;20099;-36
2021/07/24 03:28:16;;;;;;;1.92;0.88;;;30.00;34.00;;;;;;4273771;33;20102;-36
2021/07/24 03:30:42;;;;;;;2.45;0.60;;;30.10;33.90;;;;;;4297912;33;20142;-36
2021/07/24 03:33:08;;;;;;;4.25;0.70;;;30.30;34.30;;;;;;4286146;33;20071;-36
2021/07/24 03:35:35;;;;;;;2.25;0.65;;;30.50;34.10;;;;;;4297550;33;20075;-36
2021/07/24 03:38:05;;;;;;;3.40;0.60;;;30.70;33.70;;;;;;4285172;33;20087;-36
2021/07/24 03:40:32;;;;;;;4.97;0.60;;;30.80;33.50;;;;;;4297472;33;20111;-36
2021/07/24 03:42:58;;;;;;;3.62;0.90;;;30.90;33.50;;;;;;4299854;33;20571;-37
2021/07/24 03:45:25;;;;;;;1.52;0.60;;;30.90;33.20;;;;;;4300042;33;20531;-36
2021/07/24 03:47:51;;;;;;;2.60;0.70;;;30.90;33.30;;;;;;4300037;33;20090;-36
2021/07/24 03:50:18;;;;;;;3.25;1.40;;;30.80;33.70;;;;;;4305597;33;20052;-37
2021/07/24 03:52:44;;;;;;;3.67;1.20;;;31.00;33.90;;;;;;4330007;33;20162;-37
2021/07/24 03:55:11;;;;;;;2.10;0.60;;;31.20;33.70;;;;;;4330052;33;20168;-37
2021/07/24 03:57:38;;;;;;;2.17;0.62;;;31.30;32.80;;;;;;4344085;33;20066;-37
2021/07/24 04:00:05;;;;;;;1.20;0.80;;;31.20;32.60;;;;;;4343465;33;20141;-37
2021/07/24 04:02:32;;;;;;;1.87;0.90;;;31.10;33.10;;;;;;4343540;33;20152;-36
2021/07/24 04:04:59;;;;;;;2.08;0.70;;;31.10;33.40;;;;;;4343253;33;20063;-37
2021/07/24 04:07:26;;;;;;;1.90;0.65;;;31.10;33.60;;;;;;4329592;33;20146;-37
2021/07/24 04:09:53;;;;;;;2.20;0.80;;;31.20;33.80;;;;;;4317509;33;20083;-37
2021/07/24 04:12:19;;;;;;;2.97;0.80;;;31.40;34.20;;;;;;4317564;33;20086;-37
2021/07/24 04:14:46;;;;;;;1.58;0.70;;;31.70;33.90;;;;;;4329643;33;20114;-37
2021/07/24 04:17:12;;;;;;;3.40;0.80;;;31.80;33.30;;;;;;4329563;33;20075;-38
2021/07/24 04:19:39;;;;;;;3.33;0.60;;;31.80;33.50;;;;;;4329762;33;20067;-37
2021/07/24 04:22:05;;;;;;;3.33;0.80;;;31.80;33.90;;;;;;4343226;33;20070;-38
2021/07/24 04:24:31;;;;;;;1.58;0.65;;;31.90;33.60;;;;;;4343316;33;20700;-38
2021/07/24 04:26:58;;;;;;;1.10;0.90;;;31.90;34.00;;;;;;4329811;33;20095;-36
2021/07/24 04:29:24;;;;;;;2.55;1.05;;;31.80;33.80;;;;;;4329369;33;20758;-37
2021/07/24 04:31:53;;;;;;;3.67;0.90;;;31.80;34.10;;;;;;4343141;33;20079;-37
2021/07/24 04:34:19;;;;;;;1.70;0.75;;;31.80;34.10;;;;;;4317790;33;20086;-38
2021/07/24 04:36:46;;;;;;;2.45;0.90;;;31.80;34.10;;;;;;4329261;33;20178;-38
2021/07/24 04:39:12;;;;;;;2.05;0.82;;;32.00;34.20;;;;;;4343082;33;20083;-38
2021/07/24 04:41:39;;;;;;;3.78;1.27;;;32.10;34.00;;;;;;4311150;33;20551;-37
2021/07/24 04:44:05;;;;;;;1.12;0.70;;;32.20;34.10;;;;;;4310894;33;20098;-38
2021/07/24 04:46:32;;;;;;;1.90;0.68;;;32.20;33.40;;;;;;4287432;33;20079;-38
2021/07/24 04:48:58;;;;;;;1.85;0.70;;;32.10;31.90;;;;;;4311028;33;20087;-38
2021/07/24 04:51:24;;;;;;;1.05;0.60;;;32.00;33.50;;;;;;4311237;33;20060;-38
2021/07/24 04:53:51;;;;;;;3.92;0.88;;;31.80;34.10;;;;;;4299057;33;20075;-37
2021/07/24 04:56:17;;;;;;;3.70;0.90;;;31.60;34.50;;;;;;4287160;33;20524;-38
2021/07/24 04:58:45;;;;;;;3.00;1.00;;;31.40;34.70;;;;;;4323996;33;20559;-38
2021/07/24 05:01:12;;;;;;;4.20;0.70;;;31.10;34.70;;;;;;4313473;33;20153;-38
2021/07/24 05:03:39;;;;;;;7.22;0.85;;;30.80;35.10;;;;;;4313949;33;20535;-38
2021/07/24 05:06:06;;;;;;;7.97;1.02;;;30.50;35.90;;;;;;4289313;33;20152;-38
2021/07/24 05:08:36;;;;;;;2.25;0.65;;;30.40;36.00;;;;;;4313556;33;20083;-38
2021/07/24 05:11:02;;;;;;;1.90;1.35;;;30.30;35.90;;;;;;4313601;33;20169;-37
2021/07/24 05:13:30;;;;;;;6.43;1.45;;;30.20;36.00;;;;;;4313554;33;20059;-38
2021/07/24 05:15:57;;;;;;;3.58;0.70;;;30.10;35.70;;;;;;4325588;33;20090;-38
2021/07/24 05:18:23;;;;;;;6.78;1.05;;;30.10;35.10;;;;;;4320256;32;20105;-37
2021/07/24 05:20:50;;;;;;;3.90;0.70;;;29.90;33.90;;;;;;4343860;32;20094;-37
2021/07/24 05:23:16;;;;;;;2.22;0.98;;;29.70;34.10;;;;;;4331602;32;20063;-37
2021/07/24 05:25:43;;;;;;;6.22;1.00;;;29.50;34.30;;;;;;4298957;33;20554;-38
2021/07/24 05:28:11;;;;;;;3.65;0.73;;;29.40;34.60;;;;;;4286495;33;20545;-37
2021/07/24 05:30:37;;;;;;;1.75;0.70;;;29.40;34.80;;;;;;4298884;33;20511;-38
2021/07/24 05:33:04;;;;;;;4.03;0.90;;;29.20;34.90;;;;;;4313890;33;20098;-37
2021/07/24 05:35:30;;;;;;;2.17;0.80;;;29.10;35.40;;;;;;4301735;33;20064;-38
2021/07/24 05:37:57;;;;;;;3.85;1.23;;;29.10;35.40;;;;;;4313904;33;20071;-39
2021/07/24 05:40:24;;;;;;;7.22;0.90;;;29.00;35.30;;;;;;4301373;33;20534;-38
2021/07/24 05:42:50;;;;;;;5.53;0.80;;;29.00;35.40;;;;;;4301558;33;20183;-37
2021/07/24 05:45:16;;;;;;;2.25;0.70;;;29.10;35.40;;;;;;4313392;33;20113;-36
2021/07/24 05:47:43;;;;;;;1.87;0.60;;;29.10;35.20;;;;;;4301818;33;20075;-37
2021/07/24 05:50:10;;;;;;;6.75;1.27;;;29.10;35.10;;;;;;4284020;33;20091;-38
2021/07/24 05:52:36;;;;;;;6.85;0.90;;;29.20;35.30;;;;;;4272679;33;20094;-38
2021/07/24 05:55:04;;;;;;;4.50;0.77;;;29.30;34.90;;;;;;4284327;33;20143;-37
2021/07/24 05:57:30;;;;;;;5.40;1.15;;;29.60;34.70;;;;;;4269764;33;20060;-37
2021/07/24 05:59:57;;;;;;;5.47;0.93;;;29.80;34.10;;;;;;4257685;33;20088;-37
2021/07/24 06:02:23;;;;;;;1.85;0.70;;;30.00;34.10;;;;;;4277883;33;20182;-38
2021/07/24 06:04:50;;;;;;;2.28;0.60;;;30.10;33.20;;;;;;4313123;33;20048;-37
2021/07/24 06:07:16;;;;;;;4.43;0.70;;;30.00;33.30;;;;;;4313704;33;20158;-38
2021/07/24 06:09:43;;;;;;;8.68;1.25;;;30.00;33.60;;;;;;4301239;33;20075;-38
2021/07/24 06:12:10;;;;;;;4.35;0.80;;;30.00;33.80;;;;;;4313385;33;20091;-37
2021/07/24 06:14:36;;;;;;;0.98;0.50;;;30.00;34.10;;;;;;4301083;33;20069;-37
2021/07/24 06:17:04;;;;;;;3.65;0.45;;;30.10;33.90;;;;;;4298171;33;20093;-38
2021/07/24 06:19:31;;;;;;;1.35;0.68;;;30.00;33.40;;;;;;4298336;33;20575;-39
2021/07/24 06:21:59;;;;;;;1.75;0.70;;;29.90;33.70;;;;;;4286591;33;20064;-38
2021/07/24 06:24:25;;;;;;;3.08;1.12;;;29.80;34.00;;;;;;4298257;33;20083;-37
2021/07/24 06:26:52;;;;;;;3.87;0.65;;;29.90;34.10;;;;;;4289312;33;20150;-38
2021/07/24 06:29:18;;;;;;;2.37;1.00;;;30.00;34.10;;;;;;4269821;33;20076;-37
2021/07/24 06:31:45;;;;;;;1.60;0.70;;;30.00;34.20;;;;;;4269381;33;20084;-37
2021/07/24 06:34:11;;;;;;;4.20;0.70;;;30.10;34.00;;;;;;4284029;33;20090;-37
2021/07/24 06:36:39;;;;;;;1.90;0.70;;;30.00;34.00;;;;;;4283784;33;20186;-38
2021/07/24 06:39:05;;;;;;;2.75;1.00;;;30.10;34.20;;;;;;4272025;33;20072;-38
2021/07/24 06:41:34;;;;;;;1.60;0.70;;;30.10;34.20;;;;;;4283714;33;20069;-37
2021/07/24 06:44:02;;;;;;;1.77;0.40;;;30.10;34.00;;;;;;4283787;33;20151;-37
2021/07/24 06:46:28;;;;;;;4.20;0.50;;;30.10;33.70;;;;;;4271973;33;20095;-38
2021/07/24 06:48:55;;;;;;;3.67;0.60;;;30.00;33.70;;;;;;4296051;33;20087;-37
2021/07/24 06:51:21;;;;;;;4.12;0.55;;;30.00;33.90;;;;;;4286236;33;20092;-37
2021/07/24 06:53:48;;;;;;;5.35;0.90;;;30.10;33.70;;;;;;4298333;33;20090;-37
2021/07/24 06:56:14;;;;;;;1.70;0.60;;;30.10;33.70;;;;;;4298424;33;20159;-37
2021/07/24 06:58:40;;;;;;;2.00;0.40;;;30.00;33.60;;;;;;4297836;33;20098;-38
2021/07/24 07:01:10;;;;;;;0.90;0.70;;;30.00;33.40;;;;;;4336462;33;20094;-38
2021/07/24 07:03:36;;;;;;;4.12;0.60;;;29.90;33.20;;;;;;4330547;33;20070;-38
2021/07/24 07:06:06;;;;;;;3.15;0.77;;;30.00;33.40;;;;;;4318357;33;20148;-38
2021/07/24 07:08:34;;;;;;;4.78;0.70;;;29.90;33.30;;;;;;4330286;33;20063;-38
2021/07/24 07:11:04;;;;;;;6.65;0.50;;;29.90;33.50;;;;;;4344092;33;20518;-37
2021/07/24 07:13:31;;;;;;;4.90;0.60;;;29.90;33.50;;;;;;4344543;33;20059;-38
2021/07/24 07:15:58;;;;;;;2.05;0.40;;;30.00;33.60;;;;;;4344259;33;20066;-37
2021/07/24 07:18:24;;;;;;;2.25;0.40;;;30.10;33.30;;;;;;4318352;33;20072;-38
2021/07/24 07:20:51;;;;;;;3.20;0.50;;;30.20;33.10;;;;;;4344687;33;20480;-36
2021/07/24 07:23:19;;;;;;;2.87;0.40;;;30.40;32.60;;;;;;4344122;33;20108;-38
2021/07/24 07:25:46;;;;;;;2.22;0.65;;;30.60;31.80;;;;;;4344171;33;20082;-37
2021/07/24 07:28:12;;;;;;;3.30;0.50;;;30.80;32.20;;;;;;4330452;33;20098;-38
2021/07/24 07:30:39;;;;;;;3.55;0.60;;;31.10;31.30;;;;;;4343893;33;20530;-37
2021/07/24 07:33:05;;;;;;;4.60;0.60;;;31.20;31.70;;;;;;4330512;33;20153;-37
2021/07/24 07:35:31;;;;;;;3.50;0.50;;;31.40;31.90;;;;;;4344302;33;20122;-37
2021/07/24 07:37:59;;;;;;;1.80;0.57;;;31.50;31.80;;;;;;4330608;33;20063;-37
2021/07/24 07:40:25;;;;;;;1.50;0.60;;;31.60;32.00;;;;;;4343541;33;20071;-37
2021/07/24 07:42:52;;;;;;;2.30;0.50;;;31.50;32.10;;;;;;4343967;33;20092;-38
2021/07/24 07:45:18;;;;;;;2.28;0.60;;;31.50;32.00;;;;;;4344084;33;20511;-37
2021/07/24 07:47:45;;;;;;;2.65;0.60;;;31.60;31.90;;;;;;4297066;33;20083;-37
2021/07/24 07:50:11;;;;;;;2.03;0.40;;;31.70;31.90;;;;;;4297297;33;20082;-37
2021/07/24 07:52:38;;;;;;;2.67;0.57;;;31.80;32.70;;;;;;4297236;33;20079;-38
2021/07/24 07:55:05;;;;;;;3.03;0.52;;;31.90;32.50;;;;;;4285095;33;20071;-37
2021/07/24 07:57:31;;;;;;;1.35;0.60;;;32.00;31.80;;;;;;4290559;33;20067;-38
2021/07/24 07:59:58;;;;;;;3.60;0.60;;;32.10;31.30;;;;;;4311990;33;20121;-37
2021/07/24 08:02:24;;;;;;;2.12;0.60;;;32.00;32.10;;;;;;4311944;33;20153;-37
2021/07/24 08:04:51;;;;;;;5.05;1.02;;;32.00;31.90;;;;;;4311452;33;20528;-38
2021/07/24 08:07:17;;;;;;;3.12;0.60;;;32.00;31.90;;;;;;4299673;33;20068;-37
2021/07/24 08:09:44;;;;;;;1.02;0.60;;;31.90;31.80;;;;;;4299221;33;20580;-38
2021/07/24 08:12:11;;;;;;;1.35;0.77;;;31.90;33.00;;;;;;4299894;33;20067;-38
2021/07/24 08:14:38;;;;;;;0.93;0.52;;;31.90;32.90;;;;;;4311699;33;20083;-37
2021/07/24 08:17:05;;;;;;;2.80;0.88;;;31.90;32.50;;;;;;4311378;33;20098;-37
2021/07/24 08:19:32;;;;;;;1.83;0.60;;;31.80;32.80;;;;;;4311909;33;20467;-36
2021/07/24 08:21:58;;;;;;;2.67;0.60;;;31.80;32.40;;;;;;4328494;33;20070;-36
2021/07/24 08:24:25;;;;;;;1.92;0.52;;;31.90;33.50;;;;;;4315120;33;20558;-36
2021/07/24 08:26:51;;;;;;;2.75;0.50;;;32.00;32.40;;;;;;4328737;33;20062;-36
2021/07/24 08:29:18;;;;;;;5.35;0.60;;;31.90;32.10;;;;;;4314643;33;20063;-38
2021/07/24 08:31:44;;;;;;;2.50;0.50;;;31.80;32.20;;;;;;4328513;33;20062;-37
2021/07/24 08:34:11;;;;;;;2.25;0.50;;;31.90;32.40;;;;;;4328241;33;20446;-37
2021/07/24 08:36:37;;;;;;;3.47;0.70;;;32.20;32.00;;;;;;4328491;33;20079;-37
2021/07/24 08:39:04;;;;;;;1.00;0.50;;;32.40;31.80;;;;;;4327965;33;20090;-37
2021/07/24 08:41:30;;;;;;;0.90;0.57;;;32.60;31.60;;;;;;4328212;33;20058;-37
2021/07/24 08:43:57;;;;;;;1.45;0.45;;;32.70;31.20;;;;;;4328214;33;20127;-38
2021/07/24 08:46:23;;;;;;;2.45;0.70;;;32.90;31.60;;;;;;4315111;33;20059;-38
2021/07/24 08:48:49;;;;;;;2.58;0.50;;;33.10;31.40;;;;;;4302388;33;20083;-38
2021/07/24 08:51:17;;;;;;;3.22;0.50;;;33.30;31.00;;;;;;4328415;33;20073;-37
2021/07/24 08:53:43;;;;;;;0.98;0.55;;;33.30;30.30;;;;;;4314510;33;20070;-38
2021/07/24 08:56:23;;;;;;;2.25;0.50;;;33.40;30.50;;;;;;4328057;33;20078;-38
2021/07/24 08:58:53;;;;;;;2.33;0.40;;;33.40;30.00;;;;;;4341819;33;20055;-38
2021/07/24 09:01:21;;;;;;;2.47;0.62;;;33.20;29.80;;;;;;4343023;33;20104;-39
2021/07/24 09:03:48;;;;;;;2.87;0.50;;;33.00;30.10;;;;;;4316823;33;20102;-38
2021/07/24 09:06:24;;;;;;;2.28;0.60;;;32.80;30.60;;;;;;4343843;33;20182;-38
2021/07/24 09:08:53;;;;;;;1.95;0.57;;;32.60;30.70;;;;;;4345833;33;20082;-38
2021/07/24 09:11:20;;;;;;;2.72;0.40;;;32.60;30.40;;;;;;4317626;33;20513;-39
2021/07/24 09:13:47;;;;;;;1.20;0.50;;;32.70;30.10;;;;;;4331147;33;20111;-38
2021/07/24 09:16:14;;;;;;;1.80;0.50;;;32.80;30.00;;;;;;4331164;33;20083;-38
2021/07/24 09:18:41;;;;;;;2.50;0.60;;;32.80;30.00;;;;;;4317264;33;20068;-38
2021/07/24 09:21:08;;;;;;;1.77;0.45;;;32.70;31.00;;;;;;4331393;33;20516;-37
2021/07/24 09:23:43;;;;;;;3.20;0.50;;;32.60;31.10;;;;;;4331121;33;20075;-37
2021/07/24 09:26:09;;;;;;;2.70;0.70;;;32.70;30.90;;;;;;4330835;33;20062;-38
2021/07/24 09:28:36;;;;;;;1.10;0.47;;;32.70;31.10;;;;;;4331233;33;20495;-38
2021/07/24 09:31:21;;;;;;;1.87;0.60;;;32.80;30.80;;;;;;4330784;33;20066;-37
2021/07/24 09:33:51;;;;;;;5.75;0.65;;;32.90;31.00;;;;;;4316954;33;20557;-37
2021/07/24 09:36:31;;;;;;;4.28;0.60;;;33.20;30.80;;;;;;4316959;33;20496;-37
2021/07/24 09:39:14;;;;;;;2.35;0.50;;;33.60;30.30;;;;;;4330801;33;20106;-38
2021/07/24 09:41:43;;;;;;;2.72;0.40;;;34.10;29.80;;;;;;4317121;33;20071;-37
2021/07/24 09:44:10;;;;;;;4.43;0.50;;;34.60;29.70;;;;;;4316905;33;20079;-37
2021/07/24 09:46:37;;;;;;;1.58;0.60;;;35.00;28.80;;;;;;4316612;33;20075;-38
2021/07/24 09:49:14;;;;;;;1.85;0.43;;;35.20;28.60;;;;;;4330654;33;20071;-38
2021/07/24 09:51:43;;;;;;;2.17;0.50;;;35.10;28.90;;;;;;4271958;33;20604;-38
2021/07/24 09:54:26;;;;;;;4.18;0.50;;;35.00;28.60;;;;;;4258155;33;20147;-38
2021/07/24 09:56:54;;;;;;;4.07;0.60;;;34.90;28.70;;;;;;4271680;33;20202;-38
2021/07/24 09:59:30;;;;;;;2.45;0.50;;;34.90;28.80;;;;;;4271946;33;20530;-37
2021/07/24 10:02:00;;;;;;;1.80;0.60;;;35.10;28.50;;;;;;4272483;33;20056;-37
2021/07/24 10:04:34;;;;;;;0.68;0.50;;;35.30;28.70;;;;;;4284582;33;20102;-38
2021/07/24 10:07:06;;;;;;;0.70;0.50;;;35.50;28.10;;;;;;4284567;33;20079;-38
2021/07/24 10:09:37;;;;;;;4.30;0.70;;;35.60;27.80;;;;;;4284284;33;20489;-38
2021/07/24 10:12:09;;;;;;;3.80;0.40;;;35.50;27.80;;;;;;4272076;33;20107;-38
2021/07/24 10:14:39;;;;;;;2.33;0.60;;;35.40;27.90;;;;;;4272396;33;20060;-37
2021/07/24 10:17:06;;;;;;;1.98;0.50;;;35.40;28.10;;;;;;4284094;33;20536;-37
2021/07/24 10:19:32;;;;;;;3.53;0.80;;;35.20;28.20;;;;;;4272561;33;20076;-38
2021/07/24 10:22:00;;;;;;;5.57;1.00;;;35.10;27.90;;;;;;4284317;33;20068;-37
2021/07/24 10:24:27;;;;;;;3.55;0.65;;;35.00;27.60;;;;;;4275181;33;20158;-37
2021/07/24 10:27:32;;;;;;;1.25;0.60;;;35.10;27.40;;;;;;4286511;33;20162;-37
2021/07/24 10:30:03;;;;;;;3.58;1.08;;;35.10;26.90;;;;;;4312091;33;20060;-37
2021/07/24 10:32:37;;;;;;;2.50;0.60;;;35.00;26.80;;;;;;4317442;33;20070;-37
2021/07/24 10:35:05;;;;;;;2.22;0.50;;;34.90;26.90;;;;;;4304583;33;20142;-37
2021/07/24 10:37:42;;;;;;;1.67;0.70;;;34.90;26.90;;;;;;4330238;33;20059;-38
2021/07/24 10:40:22;;;;;;;4.05;0.60;;;34.80;26.80;;;;;;4317039;33;20475;-38
2021/07/24 10:42:53;;;;;;;0.62;0.30;;;34.70;26.90;;;;;;4329653;33;20090;-38
2021/07/24 10:45:31;;;;;;;0.95;0.55;;;34.50;26.70;;;;;;4316644;33;20064;-38
2021/07/24 10:48:13;;;;;;;8.15;0.65;;;34.10;27.30;;;;;;4330234;33;20057;-36
2021/07/24 10:50:55;;;;;;;1.45;0.70;;;34.00;27.70;;;;;;4329776;33;20590;-37
2021/07/24 10:54:02;;;;;;;1.02;0.50;;;34.00;27.70;;;;;;4330110;33;20062;-38
2021/07/24 10:56:39;;;;;;;2.83;0.40;;;34.00;28.00;;;;;;4329720;33;20157;-38
2021/07/24 10:59:18;;;;;;;2.20;0.40;;;33.90;28.00;;;;;;4316186;33;20160;-37
2021/07/24 11:01:53;;;;;;;0.90;0.60;;;33.80;28.30;;;;;;4329916;33;20555;-37
2021/07/24 11:04:38;;;;;;;2.20;0.50;;;33.60;28.30;;;;;;4312199;33;20179;-37
2021/07/24 11:07:14;;;;;;;7.00;0.90;;;33.50;28.40;;;;;;4312315;33;20109;-36
2021/07/24 11:09:41;;;;;;;1.27;0.75;;;33.30;28.70;;;;;;4313273;33;20530;-37
2021/07/24 11:12:15;;;;;;;3.78;0.90;;;33.30;28.80;;;;;;4327186;33;20530;-36
2021/07/24 11:14:51;;;;;;;1.58;0.70;;;33.20;28.80;;;;;;4271227;33;20078;-37
2021/07/24 11:17:18;;;;;;;1.27;0.60;;;33.20;28.80;;;;;;4283426;33;20466;-37
2021/07/24 11:19:50;;;;;;;2.65;0.60;;;33.20;28.70;;;;;;4271637;33;20071;-37
2021/07/24 11:22:18;;;;;;;3.87;0.73;;;33.20;28.80;;;;;;4282969;33;20653;-37
2021/07/24 11:24:50;;;;;;;0.82;0.30;;;33.20;28.80;;;;;;4240214;33;20158;-37
2021/07/24 11:27:26;;;;;;;1.50;0.70;;;33.00;28.30;;;;;;4228566;33;20077;-37
2021/07/24 11:30:05;;;;;;;1.67;0.40;;;32.90;28.50;;;;;;4239756;33;20287;-38
2021/07/24 11:32:36;;;;;;;1.35;0.68;;;32.70;28.60;;;;;;4240795;33;20588;-38
2021/07/24 11:35:07;;;;;;;4.32;0.60;;;32.70;28.80;;;;;;4240776;33;20149;-38
2021/07/24 11:37:38;;;;;;;3.40;0.80;;;32.80;28.60;;;;;;4240659;33;20069;-37
2021/07/24 11:40:06;;;;;;;1.92;0.70;;;32.90;28.60;;;;;;4240994;33;20120;-38
2021/07/24 11:42:33;;;;;;;0.90;0.32;;;33.00;28.40;;;;;;4251536;33;20559;-38
2021/07/24 11:45:00;;;;;;;0.82;0.40;;;32.90;28.20;;;;;;4262839;33;20688;-38
2021/07/24 11:47:26;;;;;;;1.77;0.50;;;32.80;28.50;;;;;;4297168;33;20079;-37
2021/07/24 11:49:54;;;;;;;0.85;0.40;;;32.70;28.60;;;;;;4297353;33;20513;-38
2021/07/24 11:52:23;;;;;;;2.05;0.40;;;32.60;28.40;;;;;;4297278;33;20088;-38
2021/07/24 11:54:52;;;;;;;3.30;0.68;;;32.50;28.60;;;;;;4285163;33;20071;-39
2021/07/24 11:57:28;;;;;;;1.08;0.30;;;32.40;28.60;;;;;;4297331;33;20056;-39
2021/07/24 11:59:55;;;;;;;2.92;0.60;;;32.40;28.80;;;;;;4284737;33;20119;-39
2021/07/24 12:02:21;;;;;;;5.28;0.90;;;32.40;28.40;;;;;;4322956;33;20070;-38
2021/07/24 12:04:49;;;;;;;0.80;0.57;;;32.40;28.40;;;;;;4329784;33;20523;-38
2021/07/24 12:07:15;;;;;;;2.47;0.60;;;32.50;28.30;;;;;;4329990;33;20067;-37
2021/07/24 12:09:42;;;;;;;1.95;0.60;;;32.70;28.10;;;;;;4343214;33;20466;-37
2021/07/24 12:12:08;;;;;;;1.08;0.47;;;32.80;28.00;;;;;;4343546;33;20062;-37
2021/07/24 12:14:35;;;;;;;2.12;0.55;;;32.80;27.90;;;;;;4329839;33;20084;-38
2021/07/24 12:17:11;;;;;;;0.45;0.32;;;32.70;28.10;;;;;;4329714;33;20146;-38
2021/07/24 12:19:40;;;;;;;0.98;0.30;;;32.50;28.20;;;;;;4343355;33;20070;-38
2021/07/24 12:22:24;;;;;;;0.98;0.60;;;32.20;28.50;;;;;;4343404;33;20487;-37
2021/07/24 12:24:51;;;;;;;5.50;0.75;;;32.00;28.70;;;;;;4329707;33;20067;-37
2021/07/24 12:27:21;;;;;;;1.92;0.68;;;32.00;28.80;;;;;;4343280;33;20078;-39
2021/07/24 12:30:01;;;;;;;0.90;0.40;;;32.10;28.90;;;;;;4343069;33;20110;-38
2021/07/24 12:32:41;;;;;;;1.12;0.40;;;32.10;28.60;;;;;;4296647;33;20074;-37
2021/07/24 12:35:15;;;;;;;0.60;0.45;;;31.90;28.50;;;;;;4296684;33;20119;-38
2021/07/24 12:37:41;;;;;;;1.95;0.30;;;31.80;28.70;;;;;;4296539;33;20496;-35
2021/07/24 12:40:15;;;;;;;0.47;0.32;;;31.70;28.70;;;;;;4284622;33;20185;-38
2021/07/24 12:42:42;;;;;;;0.75;0.40;;;31.50;28.90;;;;;;4296646;33;20143;-37
2021/07/24 12:45:25;;;;;;;5.15;1.50;;;31.30;29.30;;;;;;4285054;33;20068;-38
2021/07/24 12:47:52;;;;;;;1.80;0.60;;;31.00;29.70;;;;;;4285061;33;20508;-38
2021/07/24 12:50:19;;;;;;;1.23;0.50;;;30.90;30.00;;;;;;4281504;33;20163;-38
2021/07/24 12:52:47;;;;;;;1.67;0.62;;;30.70;30.00;;;;;;4282131;33;20087;-36
2021/07/24 12:55:22;;;;;;;0.75;0.62;;;30.70;29.80;;;;;;4282304;33;20096;-39
2021/07/24 12:57:49;;;;;;;1.62;0.62;;;30.60;30.00;;;;;;4289692;33;20072;-37